sensor_id;sensor_type;location;lat;lon;timestamp;pressure;altitude;pressure_sealevel;temperature;humidity
48216;BME280;34005;48.844;10.098;2022-12-10T00:01:07;95441.88;;;2.63;73.54
48216;BME280;34005;48.844;10.098;2022-12-10T00:03:35;95442.50;;;2.65;72.59
48216;BME280;34005;48.844;10.098;2022-12-10T00:06:05;95445.72;;;2.67;72.76
48216;BME280;34005;48.844;10.098;2022-12-10T00:08:34;95451.81;;;2.66;72.62
48216;BME280;34005;48.844;10.098;2022-12-10T00:11:02;95446.69;;;2.66;73.02
48216;BME280;34005;48.844;10.098;2022-12-10T00:13:31;95440.59;;;2.67;73.38
48216;BME280;34005;48.844;10.098;2022-12-10T00:15:59;95451.81;;;2.66;73.13
48216;BME280;34005;48.844;10.098;2022-12-10T00:18:28;95446.69;;;2.66;73.38
48216;BME280;34005;48.844;10.098;2022-12-10T00:20:56;95443.47;;;2.64;72.91
48216;BME280;34005;48.844;10.098;2022-12-10T00:23:24;95433.97;;;2.64;73.35
48216;BME280;34005;48.844;10.098;2022-12-10T00:25:51;95435.44;;;2.67;73.55
48216;BME280;34005;48.844;10.098;2022-12-10T00:28:19;95425.78;;;2.69;73.97
48216;BME280;34005;48.844;10.098;2022-12-10T00:30:47;95430.28;;;2.67;73.68
48216;BME280;34005;48.844;10.098;2022-12-10T00:33:14;95425.13;;;2.67;74.02
48216;BME280;34005;48.844;10.098;2022-12-10T00:35:43;95427.53;;;2.68;73.72
48216;BME280;34005;48.844;10.098;2022-12-10T00:38:11;95427.38;;;2.70;74.26
48216;BME280;34005;48.844;10.098;2022-12-10T00:40:38;95426.56;;;2.70;73.58
48216;BME280;34005;48.844;10.098;2022-12-10T00:43:06;95429.31;;;2.68;74.00
48216;BME280;34005;48.844;10.098;2022-12-10T00:45:33;95426.88;;;2.66;73.36
48216;BME280;34005;48.844;10.098;2022-12-10T00:48:01;95422.72;;;2.65;73.25
48216;BME280;34005;48.844;10.098;2022-12-10T00:50:29;95425.13;;;2.59;72.44
48216;BME280;34005;48.844;10.098;2022-12-10T00:52:57;95416.25;;;2.53;71.77
48216;BME280;34005;48.844;10.098;2022-12-10T00:55:25;95420.63;;;2.53;71.61
48216;BME280;34005;48.844;10.098;2022-12-10T00:57:52;95421.41;;;2.53;72.19
48216;BME280;34005;48.844;10.098;2022-12-10T01:00:20;95427.53;;;2.52;71.74
48216;BME280;34005;48.844;10.098;2022-12-10T01:02:48;95429.31;;;2.52;72.18
48216;BME280;34005;48.844;10.098;2022-12-10T01:05:15;95429.78;;;2.55;72.87
48216;BME280;34005;48.844;10.098;2022-12-10T01:07:43;95428.66;;;2.58;73.10
48216;BME280;34005;48.844;10.098;2022-12-10T01:10:13;95434.94;;;2.55;72.08
48216;BME280;34005;48.844;10.098;2022-12-10T01:12:40;95434.94;;;2.55;72.58
48216;BME280;34005;48.844;10.098;2022-12-10T01:15:08;95444.09;;;2.58;73.06
48216;BME280;34005;48.844;10.098;2022-12-10T01:17:36;95436.06;;;2.61;73.44
48216;BME280;34005;48.844;10.098;2022-12-10T01:20:04;95442.81;;;2.62;73.15
48216;BME280;34005;48.844;10.098;2022-12-10T01:22:33;95439.28;;;2.63;73.11
48216;BME280;34005;48.844;10.098;2022-12-10T01:25:00;95440.25;;;2.62;72.94
48216;BME280;34005;48.844;10.098;2022-12-10T01:27:29;95442.34;;;2.58;72.35
48216;BME280;34005;48.844;10.098;2022-12-10T01:29:57;95446.84;;;2.56;73.00
48216;BME280;34005;48.844;10.098;2022-12-10T01:32:24;95453.59;;;2.57;73.06
48216;BME280;34005;48.844;10.098;2022-12-10T01:34:52;95454.88;;;2.61;73.63
48216;BME280;34005;48.844;10.098;2022-12-10T01:37:19;95449.59;;;2.63;73.05
48216;BME280;34005;48.844;10.098;2022-12-10T01:39:47;95453.13;;;2.62;72.31
48216;BME280;34005;48.844;10.098;2022-12-10T01:42:14;95454.09;;;2.61;72.54
48216;BME280;34005;48.844;10.098;2022-12-10T01:45:14;95457.47;;;2.61;73.51
48216;BME280;34005;48.844;10.098;2022-12-10T01:47:41;95462.28;;;2.64;73.54
48216;BME280;34005;48.844;10.098;2022-12-10T01:50:09;95466.34;;;2.67;73.41
48216;BME280;34005;48.844;10.098;2022-12-10T01:52:38;95465.34;;;2.68;73.43
48216;BME280;34005;48.844;10.098;2022-12-10T01:55:34;95464.41;;;2.69;73.26
48216;BME280;34005;48.844;10.098;2022-12-10T01:57:57;95465.00;;;2.71;73.54
48216;BME280;34005;48.844;10.098;2022-12-10T02:00:24;95471.16;;;2.70;72.82
48216;BME280;34005;48.844;10.098;2022-12-10T02:02:57;95471.47;;;2.67;72.25
48216;BME280;34005;48.844;10.098;2022-12-10T02:05:31;95469.06;;;2.65;72.30
48216;BME280;34005;48.844;10.098;2022-12-10T02:08:05;95473.22;;;2.66;72.98
48216;BME280;34005;48.844;10.098;2022-12-10T02:10:43;95475.00;;;2.66;72.83
48216;BME280;34005;48.844;10.098;2022-12-10T02:13:21;95479.50;;;2.64;73.06
48216;BME280;34005;48.844;10.098;2022-12-10T02:15:52;95473.56;;;2.63;72.70
48216;BME280;34005;48.844;10.098;2022-12-10T02:18:25;95471.63;;;2.65;73.04
48216;BME280;34005;48.844;10.098;2022-12-10T02:20:56;95470.84;;;2.65;72.36
48216;BME280;34005;48.844;10.098;2022-12-10T02:23:28;95475.34;;;2.63;72.93
48216;BME280;34005;48.844;10.098;2022-12-10T02:26:00;95467.91;;;2.60;72.12
48216;BME280;34005;48.844;10.098;2022-12-10T02:28:36;95472.25;;;2.59;72.60
48216;BME280;34005;48.844;10.098;2022-12-10T02:31:09;95475.00;;;2.58;72.85
48216;BME280;34005;48.844;10.098;2022-12-10T02:33:42;95477.91;;;2.55;72.88
48216;BME280;34005;48.844;10.098;2022-12-10T02:36:12;95473.72;;;2.54;73.10
48216;BME280;34005;48.844;10.098;2022-12-10T02:38:42;95470.31;;;2.53;73.22
48216;BME280;34005;48.844;10.098;2022-12-10T02:41:13;95466.16;;;2.52;72.33
48216;BME280;34005;48.844;10.098;2022-12-10T02:43:43;95463.25;;;2.55;72.96
48216;BME280;34005;48.844;10.098;2022-12-10T02:46:14;95461.81;;;2.53;72.66
48216;BME280;34005;48.844;10.098;2022-12-10T02:48:43;95461.66;;;2.54;73.23
48216;BME280;34005;48.844;10.098;2022-12-10T02:51:12;95465.81;;;2.55;73.41
48216;BME280;34005;48.844;10.098;2022-12-10T02:53:41;95463.44;;;2.54;73.01
48216;BME280;34005;48.844;10.098;2022-12-10T02:56:14;95457.00;;;2.50;72.71
48216;BME280;34005;48.844;10.098;2022-12-10T02:58:56;95458.25;;;2.45;72.21
48216;BME280;34005;48.844;10.098;2022-12-10T03:01:32;95461.78;;;2.44;71.72
48216;BME280;34005;48.844;10.098;2022-12-10T03:04:10;95462.75;;;2.43;71.63
48216;BME280;34005;48.844;10.098;2022-12-10T03:06:43;95461.13;;;2.42;71.98
48216;BME280;34005;48.844;10.098;2022-12-10T03:09:17;95452.63;;;2.42;72.15
48216;BME280;34005;48.844;10.098;2022-12-10T03:11:49;95455.34;;;2.40;71.11
48216;BME280;34005;48.844;10.098;2022-12-10T03:14:22;95449.53;;;2.38;72.08
48216;BME280;34005;48.844;10.098;2022-12-10T03:16:54;95447.94;;;2.37;71.22
48216;BME280;34005;48.844;10.098;2022-12-10T03:19:26;95447.16;;;2.37;71.15
48216;BME280;34005;48.844;10.098;2022-12-10T03:21:56;95441.22;;;2.36;71.66
48216;BME280;34005;48.844;10.098;2022-12-10T03:24:27;95440.56;;;2.34;71.01
48216;BME280;34005;48.844;10.098;2022-12-10T03:26:55;95446.00;;;2.31;71.09
48216;BME280;34005;48.844;10.098;2022-12-10T03:29:27;95451.34;;;2.30;71.39
48216;BME280;34005;48.844;10.098;2022-12-10T03:31:59;95450.50;;;2.29;71.54
48216;BME280;34005;48.844;10.098;2022-12-10T03:34:28;95449.84;;;2.27;71.37
48216;BME280;34005;48.844;10.098;2022-12-10T03:36:56;95450.84;;;2.26;71.78
48216;BME280;34005;48.844;10.098;2022-12-10T03:39:25;95452.75;;;2.24;71.74
48216;BME280;34005;48.844;10.098;2022-12-10T03:41:53;95448.41;;;2.24;71.59
48216;BME280;34005;48.844;10.098;2022-12-10T03:44:28;95446.00;;;2.23;70.98
48216;BME280;34005;48.844;10.098;2022-12-10T03:46:56;95443.75;;;2.20;71.29
48216;BME280;34005;48.844;10.098;2022-12-10T03:49:26;95438.59;;;2.20;71.06
48216;BME280;34005;48.844;10.098;2022-12-10T03:51:54;95446.63;;;2.17;71.32
48216;BME280;34005;48.844;10.098;2022-12-10T03:54:21;95458.53;;;2.18;72.11
48216;BME280;34005;48.844;10.098;2022-12-10T03:56:49;95459.81;;;2.22;72.20
48216;BME280;34005;48.844;10.098;2022-12-10T03:59:17;95461.44;;;2.23;71.98
48216;BME280;34005;48.844;10.098;2022-12-10T04:01:44;95456.94;;;2.25;71.45
48216;BME280;34005;48.844;10.098;2022-12-10T04:04:12;95463.56;;;2.28;71.73
48216;BME280;34005;48.844;10.098;2022-12-10T04:06:42;95459.19;;;2.28;72.24
48216;BME280;34005;48.844;10.098;2022-12-10T04:09:10;95463.56;;;2.28;71.91
48216;BME280;34005;48.844;10.098;2022-12-10T04:11:38;95463.22;;;2.31;72.59
48216;BME280;34005;48.844;10.098;2022-12-10T04:14:07;95463.06;;;2.32;72.74
48216;BME280;34005;48.844;10.098;2022-12-10T04:16:53;95464.38;;;2.36;72.63
48216;BME280;34005;48.844;10.098;2022-12-10T04:19:21;95452.44;;;2.35;72.03
48216;BME280;34005;48.844;10.098;2022-12-10T04:21:50;95448.28;;;2.34;71.77
48216;BME280;34005;48.844;10.098;2022-12-10T04:24:36;95443.28;;;2.33;71.40
48216;BME280;34005;48.844;10.098;2022-12-10T04:27:23;95432.34;;;2.31;71.70
48216;BME280;34005;48.844;10.098;2022-12-10T04:29:51;95437.81;;;2.28;71.72
48216;BME280;34005;48.844;10.098;2022-12-10T04:32:20;95437.00;;;2.27;71.59
48216;BME280;34005;48.844;10.098;2022-12-10T04:34:47;95437.00;;;2.27;71.18
48216;BME280;34005;48.844;10.098;2022-12-10T04:37:17;95439.25;;;2.22;70.90
48216;BME280;34005;48.844;10.098;2022-12-10T04:39:46;95448.25;;;2.18;71.25
48216;BME280;34005;48.844;10.098;2022-12-10T04:42:13;95448.56;;;2.15;71.15
48216;BME280;34005;48.844;10.098;2022-12-10T04:44:41;95442.13;;;2.11;71.47
48216;BME280;34005;48.844;10.098;2022-12-10T04:47:09;95442.28;;;2.09;71.86
48216;BME280;34005;48.844;10.098;2022-12-10T04:49:37;95448.88;;;2.12;71.83
48216;BME280;34005;48.844;10.098;2022-12-10T04:52:07;95448.56;;;2.15;73.35
48216;BME280;34005;48.844;10.098;2022-12-10T04:54:36;95463.38;;;2.21;72.97
48216;BME280;34005;48.844;10.098;2022-12-10T04:57:05;95444.25;;;2.23;72.97
48216;BME280;34005;48.844;10.098;2022-12-10T04:59:32;95447.63;;;2.24;72.05
48216;BME280;34005;48.844;10.098;2022-12-10T05:02:00;95446.31;;;2.20;71.81
48216;BME280;34005;48.844;10.098;2022-12-10T05:04:28;95447.75;;;2.22;72.29
48216;BME280;34005;48.844;10.098;2022-12-10T05:06:55;95452.44;;;2.27;72.69
48216;BME280;34005;48.844;10.098;2022-12-10T05:09:23;95457.28;;;2.30;72.61
48216;BME280;34005;48.844;10.098;2022-12-10T05:11:52;95457.94;;;2.32;72.61
48216;BME280;34005;48.844;10.098;2022-12-10T05:14:19;95456.94;;;2.33;71.30
48216;BME280;34005;48.844;10.098;2022-12-10T05:16:48;95461.28;;;2.33;70.73
48216;BME280;34005;48.844;10.098;2022-12-10T05:19:16;95454.38;;;2.33;70.88
48216;BME280;34005;48.844;10.098;2022-12-10T05:21:45;95459.22;;;2.36;71.07
48216;BME280;34005;48.844;10.098;2022-12-10T05:24:31;95461.63;;;2.38;71.90
48216;BME280;34005;48.844;10.098;2022-12-10T05:26:59;95466.28;;;2.42;72.22
48216;BME280;34005;48.844;10.098;2022-12-10T05:29:27;95467.59;;;2.46;71.21
48216;BME280;34005;48.844;10.098;2022-12-10T05:31:55;95472.09;;;2.44;69.89
48216;BME280;34005;48.844;10.098;2022-12-10T05:34:22;95469.50;;;2.44;70.30
48216;BME280;34005;48.844;10.098;2022-12-10T05:36:50;95471.13;;;2.45;71.00
48216;BME280;34005;48.844;10.098;2022-12-10T05:39:18;95468.38;;;2.47;71.58
48216;BME280;34005;48.844;10.098;2022-12-10T05:41:45;95472.72;;;2.46;71.16
48216;BME280;34005;48.844;10.098;2022-12-10T05:44:14;95472.72;;;2.46;72.06
48216;BME280;34005;48.844;10.098;2022-12-10T05:46:46;95483.03;;;2.46;71.95
48216;BME280;34005;48.844;10.098;2022-12-10T05:49:15;95475.47;;;2.45;70.60
48216;BME280;34005;48.844;10.098;2022-12-10T05:51:42;95486.88;;;2.42;71.51
48216;BME280;34005;48.844;10.098;2022-12-10T05:54:10;95480.13;;;2.41;70.75
48216;BME280;34005;48.844;10.098;2022-12-10T05:56:37;95480.28;;;2.40;69.29
48216;BME280;34005;48.844;10.098;2022-12-10T05:59:51;95486.56;;;2.37;67.07
48216;BME280;34005;48.844;10.098;2022-12-10T06:02:33;95497.00;;;2.36;68.89
48216;BME280;34005;48.844;10.098;2022-12-10T06:10:47;95500.22;;;2.38;69.58
48216;BME280;34005;48.844;10.098;2022-12-10T06:13:16;95503.13;;;2.35;69.68
48216;BME280;34005;48.844;10.098;2022-12-10T06:16:26;95502.00;;;2.37;70.34
48216;BME280;34005;48.844;10.098;2022-12-10T06:18:55;95501.34;;;2.35;68.91
48216;BME280;34005;48.844;10.098;2022-12-10T06:26:37;95509.53;;;2.31;69.44
48216;BME280;34005;48.844;10.098;2022-12-10T06:29:05;95500.66;;;2.25;69.69
48216;BME280;34005;48.844;10.098;2022-12-10T06:31:35;95500.84;;;2.23;69.72
48216;BME280;34005;48.844;10.098;2022-12-10T06:34:18;95496.81;;;2.21;70.13
48216;BME280;34005;48.844;10.098;2022-12-10T06:36:52;95511.13;;;2.23;69.71
48216;BME280;34005;48.844;10.098;2022-12-10T06:39:25;95509.38;;;2.24;70.56
48216;BME280;34005;48.844;10.098;2022-12-10T06:41:55;95509.38;;;2.24;69.53
48216;BME280;34005;48.844;10.098;2022-12-10T06:44:25;95518.34;;;2.20;69.73
48216;BME280;34005;48.844;10.098;2022-12-10T06:46:59;95525.41;;;2.18;69.71
48216;BME280;34005;48.844;10.098;2022-12-10T06:49:29;95521.91;;;2.19;70.89
48216;BME280;34005;48.844;10.098;2022-12-10T06:52:03;95519.16;;;2.20;71.15
48216;BME280;34005;48.844;10.098;2022-12-10T06:57:02;95506.47;;;2.19;71.02
48216;BME280;34005;48.844;10.098;2022-12-10T06:59:31;95510.50;;;2.21;71.48
48216;BME280;34005;48.844;10.098;2022-12-10T07:02:00;95502.91;;;2.20;70.88
48216;BME280;34005;48.844;10.098;2022-12-10T07:04:29;95511.44;;;2.20;71.43
48216;BME280;34005;48.844;10.098;2022-12-10T07:07:00;95517.22;;;2.22;71.72
48216;BME280;34005;48.844;10.098;2022-12-10T07:09:46;95514.38;;;2.25;71.43
48216;BME280;34005;48.844;10.098;2022-12-10T07:12:40;95516.47;;;2.30;73.16
48216;BME280;34005;48.844;10.098;2022-12-10T07:15:52;95507.63;;;2.33;71.73
48216;BME280;34005;48.844;10.098;2022-12-10T07:18:21;95511.97;;;2.32;72.81
48216;BME280;34005;48.844;10.098;2022-12-10T07:20:49;95504.91;;;2.34;72.66
48216;BME280;34005;48.844;10.098;2022-12-10T07:23:16;95511.78;;;2.34;71.52
48216;BME280;34005;48.844;10.098;2022-12-10T07:25:44;95515.66;;;2.30;71.77
48216;BME280;34005;48.844;10.098;2022-12-10T07:28:12;95522.56;;;2.29;71.57
48216;BME280;34005;48.844;10.098;2022-12-10T07:30:39;95518.25;;;2.30;71.50
48216;BME280;34005;48.844;10.098;2022-12-10T07:33:07;95523.22;;;2.31;71.31
48216;BME280;34005;48.844;10.098;2022-12-10T07:35:38;95522.41;;;2.31;71.87
48216;BME280;34005;48.844;10.098;2022-12-10T07:38:14;95539.44;;;2.32;71.81
48216;BME280;34005;48.844;10.098;2022-12-10T07:40:41;95535.13;;;2.32;71.72
48216;BME280;34005;48.844;10.098;2022-12-10T07:43:09;95541.53;;;2.28;71.23
48216;BME280;34005;48.844;10.098;2022-12-10T07:45:38;95546.03;;;2.26;70.92
48216;BME280;34005;48.844;10.098;2022-12-10T07:48:06;95546.84;;;2.26;71.16
48216;BME280;34005;48.844;10.098;2022-12-10T07:50:39;95549.56;;;2.25;71.43
48216;BME280;34005;48.844;10.098;2022-12-10T07:53:08;95551.19;;;2.26;71.04
48216;BME280;34005;48.844;10.098;2022-12-10T07:55:37;95550.38;;;2.25;70.63
48216;BME280;34005;48.844;10.098;2022-12-10T07:58:05;95550.22;;;2.27;70.59
48216;BME280;34005;48.844;10.098;2022-12-10T08:00:33;95550.38;;;2.25;70.76
48216;BME280;34005;48.844;10.098;2022-12-10T08:03:01;95555.69;;;2.24;70.22
48216;BME280;34005;48.844;10.098;2022-12-10T08:05:28;95554.38;;;2.20;69.96
48216;BME280;34005;48.844;10.098;2022-12-10T08:07:57;95561.75;;;2.15;70.44
48216;BME280;34005;48.844;10.098;2022-12-10T08:10:33;95562.06;;;2.12;70.15
48216;BME280;34005;48.844;10.098;2022-12-10T08:13:01;95552.38;;;2.05;70.33
48216;BME280;34005;48.844;10.098;2022-12-10T08:15:28;95560.41;;;2.02;70.19
48216;BME280;34005;48.844;10.098;2022-12-10T08:17:56;95564.09;;;2.00;70.57
48216;BME280;34005;48.844;10.098;2022-12-10T08:20:25;95568.44;;;1.99;70.45
48216;BME280;34005;48.844;10.098;2022-12-10T08:22:52;95570.38;;;1.97;70.45
48216;BME280;34005;48.844;10.098;2022-12-10T08:25:21;95580.00;;;1.95;70.39
48216;BME280;34005;48.844;10.098;2022-12-10T08:27:49;95575.16;;;1.92;70.11
48216;BME280;34005;48.844;10.098;2022-12-10T08:30:16;95596.84;;;1.90;70.08
48216;BME280;34005;48.844;10.098;2022-12-10T08:32:44;95585.88;;;1.88;70.53
48216;BME280;34005;48.844;10.098;2022-12-10T08:35:12;95585.09;;;1.87;70.52
48216;BME280;34005;48.844;10.098;2022-12-10T08:37:40;95597.81;;;1.89;70.29
48216;BME280;34005;48.844;10.098;2022-12-10T08:40:09;95597.63;;;1.90;70.00
48216;BME280;34005;48.844;10.098;2022-12-10T08:42:38;95608.09;;;1.89;70.13
48216;BME280;34005;48.844;10.098;2022-12-10T08:45:07;95603.91;;;1.88;70.04
48216;BME280;34005;48.844;10.098;2022-12-10T08:47:35;95612.44;;;1.88;70.31
48216;BME280;34005;48.844;10.098;2022-12-10T08:50:02;95615.16;;;1.87;70.63
48216;BME280;34005;48.844;10.098;2022-12-10T08:52:30;95610.81;;;1.87;70.38
48216;BME280;34005;48.844;10.098;2022-12-10T08:54:58;95610.81;;;1.87;70.22
48216;BME280;34005;48.844;10.098;2022-12-10T08:57:25;95615.94;;;1.87;70.60
48216;BME280;34005;48.844;10.098;2022-12-10T08:59:54;95606.31;;;1.89;70.14
48216;BME280;34005;48.844;10.098;2022-12-10T09:02:22;95599.91;;;1.93;70.52
48216;BME280;34005;48.844;10.098;2022-12-10T09:04:50;95607.50;;;1.95;69.90
48216;BME280;34005;48.844;10.098;2022-12-10T09:07:19;95606.38;;;1.97;69.90
48216;BME280;34005;48.844;10.098;2022-12-10T09:09:46;95599.59;;;1.96;70.00
48216;BME280;34005;48.844;10.098;2022-12-10T09:12:17;95601.22;;;1.97;70.00
48216;BME280;34005;48.844;10.098;2022-12-10T09:14:45;95603.34;;;2.02;70.20
48216;BME280;34005;48.844;10.098;2022-12-10T09:17:14;95592.59;;;2.06;69.80
48216;BME280;34005;48.844;10.098;2022-12-10T09:19:41;95602.72;;;2.08;69.98
48216;BME280;34005;48.844;10.098;2022-12-10T09:22:09;95611.91;;;2.11;69.90
48216;BME280;34005;48.844;10.098;2022-12-10T09:24:37;95619.47;;;2.12;69.92
48216;BME280;34005;48.844;10.098;2022-12-10T09:27:07;95624.31;;;2.15;70.05
48216;BME280;34005;48.844;10.098;2022-12-10T09:29:35;95626.75;;;2.17;70.31
48216;BME280;34005;48.844;10.098;2022-12-10T09:32:02;95624.81;;;2.19;69.90
48216;BME280;34005;48.844;10.098;2022-12-10T09:34:32;95621.28;;;2.20;69.84
48216;BME280;34005;48.844;10.098;2022-12-10T09:37:00;95633.19;;;2.21;69.63
48216;BME280;34005;48.844;10.098;2022-12-10T09:39:27;95621.78;;;2.23;69.63
48216;BME280;34005;48.844;10.098;2022-12-10T09:42:10;95610.22;;;2.28;69.95
48216;BME280;34005;48.844;10.098;2022-12-10T09:44:49;95622.91;;;2.29;69.52
48216;BME280;34005;48.844;10.098;2022-12-10T09:47:24;95617.13;;;2.27;68.96
48216;BME280;34005;48.844;10.098;2022-12-10T09:50:03;95613.88;;;2.25;69.43
48216;BME280;34005;48.844;10.098;2022-12-10T09:52:41;95616.31;;;2.26;69.19
48216;BME280;34005;48.844;10.098;2022-12-10T09:55:15;95614.72;;;2.25;69.17
48216;BME280;34005;48.844;10.098;2022-12-10T09:57:45;95616.31;;;2.26;69.24
48216;BME280;34005;48.844;10.098;2022-12-10T10:00:20;95621.31;;;2.28;68.82
48216;BME280;34005;48.844;10.098;2022-12-10T10:02:51;95607.47;;;2.29;69.18
48216;BME280;34005;48.844;10.098;2022-12-10T10:05:25;95608.44;;;2.28;68.92
48216;BME280;34005;48.844;10.098;2022-12-10T10:07:55;95612.47;;;2.31;68.96
48216;BME280;34005;48.844;10.098;2022-12-10T10:10:26;95603.63;;;2.33;68.74
48216;BME280;34005;48.844;10.098;2022-12-10T10:13:00;95611.06;;;2.36;69.03
48216;BME280;34005;48.844;10.098;2022-12-10T10:15:31;95595.28;;;2.39;69.59
48216;BME280;34005;48.844;10.098;2022-12-10T10:18:04;95598.53;;;2.41;69.15
48216;BME280;34005;48.844;10.098;2022-12-10T10:20:37;95591.47;;;2.43;69.40
48216;BME280;34005;48.844;10.098;2022-12-10T10:23:05;95590.19;;;2.47;70.56
48216;BME280;34005;48.844;10.098;2022-12-10T10:25:33;95589.56;;;2.54;70.49
48216;BME280;34005;48.844;10.098;2022-12-10T10:28:03;95596.31;;;2.55;69.83
48216;BME280;34005;48.844;10.098;2022-12-10T10:30:31;95585.53;;;2.59;70.23
48216;BME280;34005;48.844;10.098;2022-12-10T10:33:07;95591.19;;;2.63;70.15
48216;BME280;34005;48.844;10.098;2022-12-10T10:35:44;95592.00;;;2.63;69.65
48216;BME280;34005;48.844;10.098;2022-12-10T10:38:18;95608.25;;;2.64;69.10
48216;BME280;34005;48.844;10.098;2022-12-10T10:40:50;95613.38;;;2.64;69.07
48216;BME280;34005;48.844;10.098;2022-12-10T10:43:21;95615.03;;;2.65;68.56
48216;BME280;34005;48.844;10.098;2022-12-10T10:45:56;95621.75;;;2.66;70.42
48216;BME280;34005;48.844;10.098;2022-12-10T10:48:26;95614.38;;;2.71;69.89
48216;BME280;34005;48.844;10.098;2022-12-10T10:51:05;95603.28;;;2.71;68.54
48216;BME280;34005;48.844;10.098;2022-12-10T10:53:41;95618.25;;;2.67;67.40
48216;BME280;34005;48.844;10.098;2022-12-10T10:56:12;95614.38;;;2.63;69.00
48216;BME280;34005;48.844;10.098;2022-12-10T10:58:50;95619.66;;;2.61;68.32
48216;BME280;34005;48.844;10.098;2022-12-10T11:01:24;95618.53;;;2.64;69.00
48216;BME280;34005;48.844;10.098;2022-12-10T11:03:54;95617.41;;;2.66;68.44
48216;BME280;34005;48.844;10.098;2022-12-10T11:06:25;95616.63;;;2.66;67.85
48216;BME280;34005;48.844;10.098;2022-12-10T11:08:56;95609.03;;;2.64;68.27
48216;BME280;34005;48.844;10.098;2022-12-10T11:11:32;95606.31;;;2.66;68.27
48216;BME280;34005;48.844;10.098;2022-12-10T11:14:13;95613.75;;;2.69;68.80
48216;BME280;34005;48.844;10.098;2022-12-10T11:16:41;95614.38;;;2.71;68.65
48216;BME280;34005;48.844;10.098;2022-12-10T11:19:19;95605.53;;;2.74;68.91
48216;BME280;34005;48.844;10.098;2022-12-10T11:21:50;95625.16;;;2.75;67.92
48216;BME280;34005;48.844;10.098;2022-12-10T11:24:19;95623.25;;;2.77;68.83
48216;BME280;34005;48.844;10.098;2022-12-10T11:26:57;95615.38;;;2.78;68.22
48216;BME280;34005;48.844;10.098;2022-12-10T11:29:43;95628.41;;;2.77;67.42
48216;BME280;34005;48.844;10.098;2022-12-10T11:32:23;95630.97;;;2.77;68.10
48216;BME280;34005;48.844;10.098;2022-12-10T11:35:02;95628.06;;;2.80;68.44
48216;BME280;34005;48.844;10.098;2022-12-10T11:37:38;95620.84;;;2.83;68.51
48216;BME280;34005;48.844;10.098;2022-12-10T11:40:24;95623.41;;;2.83;66.51
48216;BME280;34005;48.844;10.098;2022-12-10T11:43:05;95628.91;;;2.80;67.17
48216;BME280;34005;48.844;10.098;2022-12-10T11:45:46;95639.50;;;2.77;67.36
48216;BME280;34005;48.844;10.098;2022-12-10T11:48:32;95633.41;;;2.78;67.22
48216;BME280;34005;48.844;10.098;2022-12-10T11:51:11;95625.03;;;2.76;66.87
48216;BME280;34005;48.844;10.098;2022-12-10T11:54:06;95615.38;;;2.78;68.67
48216;BME280;34005;48.844;10.098;2022-12-10T11:56:42;95609.25;;;2.79;67.11
48216;BME280;34005;48.844;10.098;2022-12-10T11:59:17;95609.44;;;2.78;66.47
48216;BME280;34005;48.844;10.098;2022-12-10T12:02:03;95607.00;;;2.76;66.01
48216;BME280;34005;48.844;10.098;2022-12-10T12:04:52;95618.91;;;2.77;66.79
48216;BME280;34005;48.844;10.098;2022-12-10T12:07:35;95612.00;;;2.78;66.53
48216;BME280;34005;48.844;10.098;2022-12-10T12:10:35;95601.03;;;2.76;66.06
48216;BME280;34005;48.844;10.098;2022-12-10T12:13:23;95620.66;;;2.77;67.44
48216;BME280;34005;48.844;10.098;2022-12-10T12:15:53;95621.81;;;2.82;68.00
48216;BME280;34005;48.844;10.098;2022-12-10T12:18:27;95632.13;;;2.82;68.23
48216;BME280;34005;48.844;10.098;2022-12-10T12:21:01;95638.88;;;2.83;68.16
48216;BME280;34005;48.844;10.098;2022-12-10T12:23:33;95638.88;;;2.83;69.28
48216;BME280;34005;48.844;10.098;2022-12-10T12:26:09;95645.66;;;2.84;68.16
48216;BME280;34005;48.844;10.098;2022-12-10T12:28:42;95642.91;;;2.86;69.04
48216;BME280;34005;48.844;10.098;2022-12-10T12:31:16;95642.09;;;2.85;67.59
48216;BME280;34005;48.844;10.098;2022-12-10T12:33:50;95648.88;;;2.86;68.21
48216;BME280;34005;48.844;10.098;2022-12-10T12:36:22;95660.94;;;2.86;68.16
48216;BME280;34005;48.844;10.098;2022-12-10T12:38:53;95657.56;;;2.85;67.61
48216;BME280;34005;48.844;10.098;2022-12-10T12:41:32;95650.16;;;2.82;67.50
48216;BME280;34005;48.844;10.098;2022-12-10T12:44:09;95651.09;;;2.81;66.46
48216;BME280;34005;48.844;10.098;2022-12-10T12:46:43;95640.00;;;2.81;67.23
48216;BME280;34005;48.844;10.098;2022-12-10T12:49:18;95644.34;;;2.80;66.99
48216;BME280;34005;48.844;10.098;2022-12-10T12:51:53;95648.84;;;2.78;67.02
48216;BME280;34005;48.844;10.098;2022-12-10T12:54:22;95647.06;;;2.79;67.43
48216;BME280;34005;48.844;10.098;2022-12-10T12:57:03;95644.50;;;2.79;65.96
48216;BME280;34005;48.844;10.098;2022-12-10T12:59:42;95647.88;;;2.79;65.40
48216;BME280;34005;48.844;10.098;2022-12-10T13:02:23;95657.22;;;2.80;66.47
48216;BME280;34005;48.844;10.098;2022-12-10T13:04:53;95662.38;;;2.80;66.15
48216;BME280;34005;48.844;10.098;2022-12-10T13:07:32;95656.56;;;2.78;65.62
48216;BME280;34005;48.844;10.098;2022-12-10T13:10:22;95656.56;;;2.78;65.88
48216;BME280;34005;48.844;10.098;2022-12-10T13:13:05;95668.81;;;2.76;65.31
48216;BME280;34005;48.844;10.098;2022-12-10T13:15:34;95667.03;;;2.77;66.00
48216;BME280;34005;48.844;10.098;2022-12-10T13:20:49;95670.69;;;2.66;65.96
48216;BME280;34005;48.844;10.098;2022-12-10T13:23:32;95671.97;;;2.62;66.01
48216;BME280;34005;48.844;10.098;2022-12-10T13:26:22;95675.78;;;2.58;65.59
48216;BME280;34005;48.844;10.098;2022-12-10T13:28:53;95670.31;;;2.53;66.04
48216;BME280;34005;48.844;10.098;2022-12-10T13:31:33;95690.25;;;2.51;65.96
48216;BME280;34005;48.844;10.098;2022-12-10T13:34:21;95688.47;;;2.51;65.81
48216;BME280;34005;48.844;10.098;2022-12-10T13:37:16;95702.97;;;2.52;65.88
48216;BME280;34005;48.844;10.098;2022-12-10T13:39:53;95695.72;;;2.47;65.57
48216;BME280;34005;48.844;10.098;2022-12-10T13:42:31;95704.72;;;2.43;67.09